Time;durP1;ratioP1;P1;durP2;ratioP2;P2;SDS_P1;SDS_P2;PMS_P1;PMS_P2;Temp;Humidity;BMP_temperature;BMP_pressure;BME280_temperature;BME280_humidity;BME280_pressure;Samples;Min_cycle;Max_cycle;Signal;HPM_P1;HPM_P2
2024/03/09 05:06:05;;;;;;;0.30;0.30;;;4.40;99.90;;;;;;5721250;23;20764;-65
2024/03/09 05:08:30;;;;;;;1.02;0.68;;;4.50;99.90;;;;;;4938361;29;20571;-67
2024/03/09 05:10:56;;;;;;;0.40;0.40;;;4.40;99.90;;;;;;4938321;29;20176;-67
2024/03/09 05:13:22;;;;;;;0.40;0.40;;;4.50;99.90;;;;;;4937050;29;20185;-66
2024/03/09 05:15:50;;;;;;;0.40;0.40;;;4.50;99.90;;;;;;4935970;29;20225;-66
2024/03/09 05:18:15;;;;;;;0.52;0.52;;;4.50;99.90;;;;;;4938491;29;20175;-66
2024/03/09 05:20:41;;;;;;;0.30;0.30;;;4.60;99.90;;;;;;4937790;29;20225;-67
2024/03/09 05:23:10;;;;;;;0.40;0.40;;;4.60;99.90;;;;;;4937174;29;20819;-66
2024/03/09 05:25:36;;;;;;;0.40;0.40;;;4.70;99.90;;;;;;4937468;29;20190;-66
2024/03/09 05:28:03;;;;;;;0.93;0.68;;;4.70;99.90;;;;;;4938160;29;20190;-66
2024/03/09 05:30:30;;;;;;;0.30;0.30;;;4.80;99.90;;;;;;4936505;29;20663;-68
2024/03/09 05:33:06;;;;;;;0.30;0.30;;;4.80;99.90;;;;;;4937590;29;20533;-67
2024/03/09 05:35:34;;;;;;;0.30;0.30;;;4.80;99.90;;;;;;4936669;29;20774;-67
2024/03/09 05:38:00;;;;;;;0.30;0.30;;;4.90;99.90;;;;;;4937847;29;20209;-68
2024/03/09 05:40:29;;;;;;;0.50;0.50;;;4.90;99.90;;;;;;4937707;29;20184;-67
2024/03/09 05:42:56;;;;;;;0.30;0.30;;;4.90;99.90;;;;;;4938118;29;20173;-67
2024/03/09 05:45:22;;;;;;;0.30;0.30;;;4.90;99.90;;;;;;4937837;29;20188;-66
2024/03/09 05:47:50;;;;;;;0.40;0.40;;;4.90;99.90;;;;;;4938076;29;20208;-65
2024/03/09 05:50:19;;;;;;;0.38;0.38;;;4.90;99.90;;;;;;4937529;29;20165;-65
2024/03/09 05:52:49;;;;;;;0.30;0.30;;;4.90;99.90;;;;;;4936210;29;20697;-64
2024/03/09 05:55:21;;;;;;;0.30;0.30;;;4.90;99.90;;;;;;4937317;28;20298;-67
2024/03/09 05:57:51;;;;;;;0.40;0.40;;;4.90;99.90;;;;;;4938034;29;20182;-66
2024/03/09 06:00:27;;;;;;;0.30;0.30;;;5.00;99.90;;;;;;4937677;29;20183;-65
2024/03/09 06:02:54;;;;;;;0.40;0.40;;;5.10;99.90;;;;;;4936662;29;20161;-67
2024/03/09 06:05:21;;;;;;;0.30;0.30;;;5.10;99.90;;;;;;4936038;29;20256;-67
2024/03/09 06:07:46;;;;;;;0.30;0.30;;;5.20;99.90;;;;;;4936360;29;20184;-67
2024/03/09 06:10:19;;;;;;;0.30;0.30;;;5.20;99.90;;;;;;4936340;29;20548;-67
2024/03/09 06:12:52;;;;;;;0.40;0.40;;;5.30;99.90;;;;;;4936470;29;20173;-64
2024/03/09 06:15:19;;;;;;;0.30;0.30;;;5.40;99.90;;;;;;4935959;29;20195;-66
2024/03/09 06:17:50;;;;;;;0.40;0.40;;;5.50;99.90;;;;;;4937705;29;20246;-64
2024/03/09 06:20:17;;;;;;;0.32;0.32;;;5.50;99.90;;;;;;4936551;29;20539;-67
2024/03/09 06:22:45;;;;;;;0.43;0.43;;;5.40;99.90;;;;;;4941788;29;20171;-67
2024/03/09 06:25:12;;;;;;;0.40;0.40;;;5.30;99.90;;;;;;4947160;29;20678;-67
2024/03/09 06:27:39;;;;;;;0.40;0.40;;;5.30;99.90;;;;;;4937150;29;20176;-67
2024/03/09 06:30:08;;;;;;;0.30;0.30;;;5.40;99.90;;;;;;4937509;29;20196;-65
2024/03/09 06:32:34;;;;;;;0.40;0.40;;;5.40;99.90;;;;;;4936910;29;20205;-68
2024/03/09 06:35:00;;;;;;;0.52;0.52;;;5.30;99.90;;;;;;4937190;29;20176;-66
2024/03/09 06:37:28;;;;;;;0.30;0.30;;;5.20;99.90;;;;;;4938042;29;20247;-69
2024/03/09 06:39:53;;;;;;;0.40;0.40;;;5.20;99.90;;;;;;4937653;29;20174;-65
2024/03/09 06:42:21;;;;;;;1.13;1.13;;;5.10;99.90;;;;;;4935974;29;20179;-67
2024/03/09 06:44:48;;;;;;;0.30;0.30;;;5.10;99.90;;;;;;4935657;29;20172;-67
2024/03/09 06:47:14;;;;;;;0.40;0.40;;;5.40;99.90;;;;;;4937586;29;20200;-67
2024/03/09 06:49:40;;;;;;;0.40;0.40;;;5.90;99.90;;;;;;4937296;29;20169;-68
2024/03/09 06:52:06;;;;;;;0.32;0.32;;;6.40;99.90;;;;;;4936840;29;20274;-68
2024/03/09 06:54:32;;;;;;;0.30;0.30;;;7.00;99.90;;;;;;4936068;29;20165;-66
2024/03/09 06:56:58;;;;;;;0.60;0.60;;;7.60;99.90;;;;;;4935989;29;20208;-65
2024/03/09 06:59:24;;;;;;;0.30;0.30;;;8.10;99.90;;;;;;4937190;29;20710;-67
2024/03/09 07:01:57;;;;;;;0.30;0.30;;;8.50;99.90;;;;;;4936982;29;20417;-65
2024/03/09 07:04:25;;;;;;;0.30;0.30;;;8.80;99.90;;;;;;4937094;29;20407;-64
2024/03/09 07:06:52;;;;;;;0.30;0.30;;;9.00;99.90;;;;;;4936214;29;20692;-66
2024/03/09 07:09:19;;;;;;;0.30;0.30;;;9.20;99.90;;;;;;4936012;29;20923;-67
2024/03/09 07:11:45;;;;;;;0.60;0.50;;;9.50;99.90;;;;;;4938550;29;20476;-67
2024/03/09 07:14:12;;;;;;;0.30;0.30;;;9.80;99.90;;;;;;4936084;29;20416;-66
2024/03/09 07:16:37;;;;;;;0.40;0.40;;;10.00;99.90;;;;;;4935519;29;20473;-65
2024/03/09 07:19:04;;;;;;;1.33;1.00;;;10.20;99.90;;;;;;4934369;29;20441;-69
2024/03/09 07:21:30;;;;;;;0.30;0.30;;;10.40;99.90;;;;;;4935833;29;20165;-68
2024/03/09 07:23:58;;;;;;;0.30;0.20;;;10.90;99.90;;;;;;4935744;29;20901;-68
2024/03/09 07:26:25;;;;;;;0.30;0.20;;;11.40;99.40;;;;;;4935637;29;20441;-67
2024/03/09 07:28:53;;;;;;;0.60;0.60;;;12.00;98.20;;;;;;4935944;29;20672;-70
2024/03/09 07:31:22;;;;;;;0.47;0.47;;;12.60;96.70;;;;;;4935804;29;20381;-66
2024/03/09 07:33:50;;;;;;;0.40;0.40;;;13.10;95.40;;;;;;4934555;29;20427;-67
2024/03/09 07:36:17;;;;;;;0.30;0.30;;;13.40;94.50;;;;;;4935391;29;20454;-64
2024/03/09 07:38:45;;;;;;;0.30;0.30;;;13.80;93.80;;;;;;4936534;29;20875;-68
2024/03/09 07:41:11;;;;;;;0.40;0.40;;;14.30;93.80;;;;;;4939222;29;20425;-66
2024/03/09 07:43:38;;;;;;;0.30;0.30;;;14.80;92.90;;;;;;4937884;29;20418;-69
2024/03/09 07:46:04;;;;;;;0.50;0.50;;;15.40;92.10;;;;;;4938669;29;20196;-66
2024/03/09 07:48:30;;;;;;;0.40;0.40;;;16.10;90.80;;;;;;4938781;29;20423;-66
2024/03/09 07:50:56;;;;;;;0.40;0.40;;;16.30;90.10;;;;;;4938791;29;20768;-65
2024/03/09 07:53:22;;;;;;;0.60;0.60;;;16.60;87.40;;;;;;4938944;29;20396;-68
2024/03/09 07:55:48;;;;;;;0.30;0.30;;;16.70;87.40;;;;;;4938380;29;20903;-67
2024/03/09 07:58:14;;;;;;;0.80;0.50;;;17.00;87.30;;;;;;4938713;29;20209;-64
2024/03/09 08:00:40;;;;;;;1.17;1.07;;;17.40;85.60;;;;;;4938688;29;20744;-68
2024/03/09 08:03:06;;;;;;;0.40;0.40;;;17.90;83.70;;;;;;4938651;29;20174;-66
2024/03/09 08:05:31;;;;;;;0.40;0.40;;;18.30;82.20;;;;;;4938324;29;20232;-67
2024/03/09 08:08:02;;;;;;;0.50;0.40;;;18.60;81.30;;;;;;4938488;29;20926;-63
2024/03/09 08:10:28;;;;;;;0.70;0.70;;;18.60;81.60;;;;;;4938821;29;20194;-70
2024/03/09 08:12:56;;;;;;;0.60;0.60;;;19.20;80.80;;;;;;4938376;29;20421;-63
2024/03/09 08:15:21;;;;;;;0.30;0.30;;;19.70;79.80;;;;;;4938015;29;20216;-70
2024/03/09 08:17:47;;;;;;;0.50;0.50;;;20.20;76.40;;;;;;4938288;29;20415;-67
2024/03/09 08:20:18;;;;;;;0.30;0.30;;;20.40;77.00;;;;;;4938276;29;20206;-65
2024/03/09 08:22:45;;;;;;;0.67;0.67;;;20.70;74.80;;;;;;4938274;29;20808;-65
2024/03/09 08:25:11;;;;;;;0.70;0.53;;;20.80;73.90;;;;;;4937778;29;20385;-70
2024/03/09 08:27:39;;;;;;;1.03;1.03;;;20.90;74.10;;;;;;4938045;29;20384;-68
2024/03/09 08:30:06;;;;;;;0.77;0.77;;;20.80;72.60;;;;;;4938486;29;20393;-71
2024/03/09 08:32:32;;;;;;;0.30;0.30;;;21.00;72.90;;;;;;4938031;29;20384;-68
2024/03/09 08:34:58;;;;;;;0.50;0.40;;;20.90;71.10;;;;;;4937576;29;20434;-70
2024/03/09 08:37:25;;;;;;;0.70;0.60;;;20.90;72.00;;;;;;4938024;29;20443;-64
2024/03/09 08:39:51;;;;;;;0.60;0.60;;;21.30;71.50;;;;;;4937973;29;20185;-64
2024/03/09 08:42:18;;;;;;;1.17;0.63;;;21.60;71.30;;;;;;4937965;29;20426;-64
2024/03/09 08:44:44;;;;;;;1.00;1.00;;;21.80;69.70;;;;;;4938128;29;20396;-70
2024/03/09 08:47:10;;;;;;;0.30;0.23;;;21.80;69.50;;;;;;4937888;29;20930;-70
2024/03/09 08:49:36;;;;;;;0.60;0.60;;;21.80;68.90;;;;;;4937757;29;20421;-71
2024/03/09 08:52:02;;;;;;;0.47;0.40;;;21.70;70.00;;;;;;4937846;29;20174;-70
2024/03/09 08:54:31;;;;;;;0.93;0.60;;;21.60;69.10;;;;;;4937506;29;20178;-64
2024/03/09 08:56:57;;;;;;;0.93;0.93;;;21.60;71.00;;;;;;4937180;29;20469;-63
2024/03/09 08:59:23;;;;;;;0.90;0.90;;;21.90;70.60;;;;;;4937367;29;20425;-67
2024/03/09 09:01:49;;;;;;;0.30;0.20;;;22.40;67.90;;;;;;4937459;29;20421;-64
2024/03/09 09:04:15;;;;;;;2.53;0.80;;;22.60;68.80;;;;;;4937413;29;20178;-71
2024/03/09 09:06:41;;;;;;;0.83;0.83;;;22.60;66.00;;;;;;4936850;29;20220;-70
2024/03/09 09:09:16;;;;;;;0.80;0.70;;;22.90;66.60;;;;;;4937248;29;20410;-71
2024/03/09 09:11:42;;;;;;;1.03;0.90;;;23.10;64.70;;;;;;4936118;29;20174;-69
2024/03/09 09:14:08;;;;;;;0.70;0.30;;;23.40;66.00;;;;;;4937231;29;20383;-67
2024/03/09 09:16:34;;;;;;;2.00;1.43;;;23.70;64.80;;;;;;4936971;29;21074;-69
2024/03/09 09:18:59;;;;;;;0.93;0.83;;;23.70;64.50;;;;;;4937298;29;20197;-69
2024/03/09 09:21:25;;;;;;;1.17;1.03;;;23.80;65.00;;;;;;4937360;29;20186;-71
2024/03/09 09:23:50;;;;;;;0.47;0.47;;;24.20;64.50;;;;;;4937335;29;20256;-64
2024/03/09 09:26:16;;;;;;;0.40;0.40;;;24.80;64.00;;;;;;4936806;29;20197;-69
2024/03/09 09:28:42;;;;;;;0.50;0.50;;;25.00;62.30;;;;;;4937128;29;20184;-63
2024/03/09 09:31:07;;;;;;;0.53;0.53;;;24.90;61.20;;;;;;4937259;29;20189;-69
2024/03/09 09:33:33;;;;;;;0.50;0.50;;;24.90;61.70;;;;;;4936943;29;20225;-63
2024/03/09 09:35:59;;;;;;;0.97;0.97;;;25.00;61.80;;;;;;4936540;29;20349;-70
2024/03/09 09:38:26;;;;;;;0.97;0.97;;;25.40;60.70;;;;;;4937067;29;20248;-65
2024/03/09 09:40:57;;;;;;;0.40;0.40;;;25.30;59.60;;;;;;4937148;29;20196;-64
2024/03/09 09:43:26;;;;;;;0.60;0.60;;;25.10;60.00;;;;;;4937266;29;20410;-64
2024/03/09 09:45:53;;;;;;;0.40;0.40;;;25.20;59.60;;;;;;4936338;29;20864;-67
2024/03/09 09:48:19;;;;;;;0.57;0.50;;;25.10;59.80;;;;;;4936630;29;20931;-64
2024/03/09 09:50:46;;;;;;;1.17;1.17;;;24.90;60.10;;;;;;4936711;29;20499;-67
2024/03/09 09:53:14;;;;;;;0.73;0.73;;;24.70;60.70;;;;;;4936462;29;20396;-66
2024/03/09 09:55:40;;;;;;;1.83;0.77;;;25.10;59.70;;;;;;4936156;29;20452;-66
2024/03/09 09:58:06;;;;;;;1.20;0.80;;;25.40;58.90;;;;;;4936628;29;20413;-68
2024/03/09 10:00:31;;;;;;;0.57;0.57;;;25.10;58.70;;;;;;4936717;29;20581;-66
2024/03/09 10:03:00;;;;;;;0.40;0.40;;;24.80;59.00;;;;;;4936007;29;20178;-71
2024/03/09 10:05:31;;;;;;;0.53;0.50;;;24.70;58.90;;;;;;4934633;29;20201;-63
2024/03/09 10:08:11;;;;;;;0.40;0.40;;;24.60;59.30;;;;;;4936226;29;20439;-70
2024/03/09 10:10:43;;;;;;;0.87;0.83;;;24.80;59.50;;;;;;4936405;29;20417;-64
2024/03/09 10:13:13;;;;;;;0.50;0.50;;;24.80;59.30;;;;;;4936372;29;20425;-70
2024/03/09 10:15:49;;;;;;;0.60;0.40;;;24.80;59.30;;;;;;4935802;29;20441;-66
2024/03/09 10:18:19;;;;;;;1.10;1.10;;;24.70;58.50;;;;;;4936154;29;20420;-66
2024/03/09 10:20:45;;;;;;;0.70;0.70;;;24.60;59.30;;;;;;4936169;29;20399;-66
2024/03/09 10:23:13;;;;;;;0.30;0.30;;;24.10;59.50;;;;;;4936212;29;20765;-65
2024/03/09 10:25:40;;;;;;;0.43;0.43;;;23.60;59.60;;;;;;4934373;29;20224;-67
2024/03/09 10:28:13;;;;;;;0.30;0.30;;;22.80;61.10;;;;;;4936425;29;20715;-66
2024/03/09 10:30:39;;;;;;;0.43;0.43;;;22.50;62.00;;;;;;4935968;29;20389;-65
2024/03/09 10:33:15;;;;;;;0.93;0.90;;;22.50;62.80;;;;;;4936182;29;20435;-64
2024/03/09 10:35:42;;;;;;;0.30;0.30;;;22.80;62.60;;;;;;4935723;29;20811;-64
2024/03/09 10:38:09;;;;;;;0.30;0.30;;;23.00;62.00;;;;;;4935945;29;20412;-66
2024/03/09 10:40:35;;;;;;;0.30;0.30;;;22.90;61.40;;;;;;4935936;29;20421;-64
2024/03/09 10:43:04;;;;;;;0.37;0.37;;;22.70;62.50;;;;;;4935930;29;20413;-68
2024/03/09 10:45:33;;;;;;;0.30;0.30;;;22.80;62.60;;;;;;4935280;29;20451;-64
2024/03/09 10:48:05;;;;;;;0.60;0.60;;;22.80;62.00;;;;;;4935943;29;20869;-68
2024/03/09 10:50:38;;;;;;;0.40;0.40;;;22.50;62.20;;;;;;4935958;29;20384;-67
2024/03/09 10:53:07;;;;;;;0.30;0.30;;;22.30;62.90;;;;;;4935724;29;20420;-68
2024/03/09 10:55:48;;;;;;;0.40;0.40;;;22.20;63.30;;;;;;4935328;29;20441;-67
2024/03/09 10:58:17;;;;;;;0.30;0.30;;;22.20;62.90;;;;;;4936022;29;20388;-66
2024/03/09 11:00:49;;;;;;;0.40;0.40;;;22.00;63.30;;;;;;4935982;29;20424;-66
2024/03/09 11:03:20;;;;;;;0.87;0.87;;;22.00;63.80;;;;;;4934394;29;20811;-64
2024/03/09 11:05:46;;;;;;;0.50;0.50;;;21.90;63.70;;;;;;4935218;29;20831;-67
2024/03/09 11:08:12;;;;;;;0.70;0.67;;;22.00;62.60;;;;;;4935550;29;20429;-66
2024/03/09 11:10:41;;;;;;;1.17;1.07;;;21.80;62.30;;;;;;4935618;29;20409;-66
2024/03/09 11:13:10;;;;;;;1.17;0.90;;;21.40;63.30;;;;;;4937228;29;20417;-67
2024/03/09 11:15:37;;;;;;;1.20;0.43;;;21.20;64.60;;;;;;4937580;29;20447;-66
2024/03/09 11:18:09;;;;;;;0.30;0.30;;;21.00;65.70;;;;;;4939395;29;20429;-67
2024/03/09 11:20:50;;;;;;;0.30;0.30;;;20.80;65.30;;;;;;4939415;29;20400;-68
2024/03/09 11:23:21;;;;;;;0.70;0.43;;;20.70;65.80;;;;;;4939755;29;20410;-65
2024/03/09 11:25:48;;;;;;;0.40;0.40;;;20.50;65.80;;;;;;4938813;29;20444;-64
2024/03/09 11:28:14;;;;;;;0.40;0.40;;;20.00;65.80;;;;;;4939279;29;20409;-66
2024/03/09 11:31:10;;;;;;;0.77;0.40;;;19.20;67.10;;;;;;4939085;29;20380;-66
2024/03/09 11:33:43;;;;;;;0.93;0.60;;;18.40;68.60;;;;;;4937616;29;20471;-64
2024/03/09 11:36:49;;;;;;;0.30;0.30;;;17.70;69.10;;;;;;4937565;29;20504;-66
2024/03/09 11:39:17;;;;;;;0.63;0.63;;;17.20;70.70;;;;;;4939462;29;20451;-67
2024/03/09 11:41:46;;;;;;;0.30;0.30;;;16.80;72.00;;;;;;4937617;29;20894;-63
2024/03/09 11:44:22;;;;;;;0.30;0.30;;;16.50;73.30;;;;;;4938801;29;20405;-66
2024/03/09 11:46:49;;;;;;;0.30;0.30;;;16.30;73.90;;;;;;4938941;29;20447;-66
2024/03/09 11:49:16;;;;;;;0.30;0.30;;;16.20;74.60;;;;;;4939124;29;20467;-67
2024/03/09 11:51:42;;;;;;;0.40;0.40;;;16.10;75.20;;;;;;4938889;29;20467;-65
2024/03/09 11:54:13;;;;;;;0.30;0.30;;;16.00;75.70;;;;;;4938831;29;20436;-67
2024/03/09 11:56:40;;;;;;;0.30;0.20;;;15.90;75.80;;;;;;4938318;29;20439;-64
2024/03/09 11:59:07;;;;;;;0.40;0.40;;;15.80;76.30;;;;;;4938650;29;20393;-67
2024/03/09 12:01:35;;;;;;;0.47;0.47;;;15.80;76.70;;;;;;4938630;29;20408;-68
2024/03/09 12:04:04;;;;;;;0.30;0.30;;;15.80;76.00;;;;;;4938397;29;20402;-66
2024/03/09 12:06:30;;;;;;;0.30;0.30;;;15.70;76.70;;;;;;4937942;29;20445;-67
2024/03/09 12:08:57;;;;;;;0.70;0.70;;;15.70;75.70;;;;;;4938571;29;20507;-67
2024/03/09 12:11:24;;;;;;;0.30;0.30;;;15.70;75.90;;;;;;4938748;29;20392;-67
2024/03/09 12:13:49;;;;;;;0.30;0.30;;;15.70;74.90;;;;;;4938272;29;20480;-63
2024/03/09 12:16:16;;;;;;;0.60;0.50;;;15.70;74.40;;;;;;4938165;29;20445;-69
2024/03/09 12:18:47;;;;;;;0.30;0.30;;;15.80;75.30;;;;;;4938275;29;20188;-65
2024/03/09 12:21:14;;;;;;;0.30;0.30;;;15.80;74.50;;;;;;4938256;29;20422;-68
2024/03/09 12:23:40;;;;;;;0.30;0.30;;;15.80;74.80;;;;;;4936718;29;20891;-64
2024/03/09 12:26:09;;;;;;;0.30;0.20;;;15.90;74.50;;;;;;4937304;29;20473;-68
2024/03/09 12:28:35;;;;;;;0.30;0.30;;;15.90;74.10;;;;;;4938193;29;20380;-64
2024/03/09 12:31:01;;;;;;;0.30;0.20;;;16.00;74.40;;;;;;4938190;29;20472;-69
2024/03/09 12:33:27;;;;;;;0.40;0.40;;;16.20;74.30;;;;;;4938110;29;20415;-66
2024/03/09 12:35:59;;;;;;;0.30;0.20;;;16.20;74.00;;;;;;4937777;29;20699;-70
2024/03/09 12:38:25;;;;;;;0.30;0.30;;;16.20;74.20;;;;;;4936803;29;20456;-63
2024/03/09 12:40:51;;;;;;;0.40;0.40;;;16.20;74.20;;;;;;4937996;29;20430;-69
2024/03/09 12:43:17;;;;;;;0.57;0.40;;;16.30;74.60;;;;;;4938108;29;20394;-68
2024/03/09 12:45:52;;;;;;;0.30;0.30;;;16.30;74.50;;;;;;4937537;29;20485;-67
2024/03/09 12:48:25;;;;;;;0.30;0.20;;;16.30;74.50;;;;;;4936454;29;20180;-65
2024/03/09 12:50:51;;;;;;;0.70;0.50;;;16.30;75.20;;;;;;4937780;29;20476;-68
2024/03/09 12:53:21;;;;;;;0.30;0.30;;;16.50;74.40;;;;;;4936317;29;20894;-64
2024/03/09 12:55:50;;;;;;;0.30;0.30;;;16.50;72.30;;;;;;4937291;29;20800;-67
2024/03/09 12:58:19;;;;;;;0.30;0.30;;;16.60;68.90;;;;;;4937533;29;20504;-65
2024/03/09 13:00:47;;;;;;;0.30;0.30;;;16.70;68.20;;;;;;4936862;29;20453;-66
2024/03/09 13:03:20;;;;;;;0.30;0.30;;;16.80;69.00;;;;;;4937975;29;20384;-66
2024/03/09 13:05:50;;;;;;;0.30;0.30;;;16.90;65.90;;;;;;4936864;29;20460;-65
2024/03/09 13:08:16;;;;;;;0.40;0.40;;;16.90;65.10;;;;;;4937439;29;20894;-66
2024/03/09 13:10:46;;;;;;;0.33;0.33;;;17.00;65.20;;;;;;4937496;29;20412;-66
2024/03/09 13:13:14;;;;;;;0.30;0.30;;;16.90;65.50;;;;;;4937684;29;20384;-65
2024/03/09 13:15:40;;;;;;;0.70;0.60;;;16.90;65.40;;;;;;4937163;29;20499;-68
2024/03/09 13:18:08;;;;;;;0.40;0.40;;;16.90;65.40;;;;;;4937391;29;20712;-68
2024/03/09 13:20:37;;;;;;;0.30;0.30;;;16.90;64.80;;;;;;4937332;29;20376;-68
2024/03/09 13:23:04;;;;;;;0.30;0.20;;;16.80;65.10;;;;;;4937355;29;20415;-69
2024/03/09 13:25:33;;;;;;;0.40;0.40;;;16.80;66.10;;;;;;4935467;29;20473;-68
2024/03/09 13:28:06;;;;;;;0.30;0.30;;;16.80;66.80;;;;;;4937194;29;20475;-66
2024/03/09 13:30:35;;;;;;;0.43;0.43;;;16.70;66.40;;;;;;4937152;29;20845;-65
2024/03/09 13:33:01;;;;;;;0.30;0.30;;;16.70;66.00;;;;;;4937069;29;20417;-68
2024/03/09 13:35:27;;;;;;;0.30;0.20;;;16.70;66.30;;;;;;4936293;29;20832;-65
2024/03/09 13:37:52;;;;;;;0.30;0.30;;;16.80;66.60;;;;;;4936571;29;20181;-67
2024/03/09 13:40:31;;;;;;;0.30;0.20;;;16.90;66.50;;;;;;4936877;29;20252;-66
2024/03/09 13:42:57;;;;;;;0.40;0.40;;;17.00;66.30;;;;;;4936912;29;20687;-68
2024/03/09 13:45:24;;;;;;;0.30;0.30;;;17.20;67.50;;;;;;4936304;29;20417;-66
2024/03/09 13:48:07;;;;;;;1.33;1.07;;;17.40;66.20;;;;;;4935473;29;20428;-69
2024/03/09 13:50:34;;;;;;;0.30;0.20;;;17.60;65.40;;;;;;4936749;29;20796;-67
2024/03/09 13:53:04;;;;;;;0.30;0.30;;;17.60;65.40;;;;;;4936607;29;20412;-66
2024/03/09 13:55:31;;;;;;;0.30;0.30;;;17.60;65.00;;;;;;4936457;29;20412;-68
2024/03/09 13:57:57;;;;;;;0.30;0.30;;;17.60;64.50;;;;;;4936634;29;20916;-69
2024/03/09 14:00:27;;;;;;;0.33;0.33;;;17.60;65.20;;;;;;4936596;29;20392;-68
2024/03/09 14:02:56;;;;;;;0.30;0.20;;;17.60;64.30;;;;;;4936692;29;20413;-69
2024/03/09 14:05:31;;;;;;;0.60;0.50;;;17.60;64.60;;;;;;4936340;29;20419;-66
2024/03/09 14:07:57;;;;;;;0.47;0.47;;;17.50;64.20;;;;;;4936525;29;20462;-67
2024/03/09 14:10:31;;;;;;;0.50;0.50;;;17.40;63.90;;;;;;4936924;29;20870;-66
2024/03/09 14:13:07;;;;;;;0.30;0.30;;;17.30;63.10;;;;;;4935570;29;20177;-68
2024/03/09 14:15:37;;;;;;;0.30;0.20;;;17.20;64.00;;;;;;4934867;29;20462;-68
2024/03/09 14:18:04;;;;;;;0.30;0.30;;;17.00;65.00;;;;;;4936339;29;20413;-66
2024/03/09 14:20:30;;;;;;;0.30;0.30;;;16.90;65.30;;;;;;4936252;29;20416;-67
2024/03/09 14:22:55;;;;;;;0.30;0.20;;;16.80;66.00;;;;;;4936343;29;20387;-69
2024/03/09 14:25:28;;;;;;;0.30;0.30;;;16.80;65.00;;;;;;4935862;29;20400;-70
2024/03/09 14:27:57;;;;;;;0.30;0.30;;;16.70;65.10;;;;;;4936458;29;20180;-69
2024/03/09 14:30:56;;;;;;;0.50;0.50;;;16.60;64.90;;;;;;4936456;29;20412;-64
2024/03/09 14:33:15;;;;;;;0.30;0.30;;;16.50;66.00;;;;;;4933715;29;20504;-67
2024/03/09 14:35:41;;;;;;;0.50;0.40;;;16.50;65.80;;;;;;4935933;29;20527;-67
2024/03/09 14:38:08;;;;;;;0.30;0.30;;;16.50;65.80;;;;;;4935167;29;20258;-68
2024/03/09 14:40:34;;;;;;;0.30;0.30;;;16.50;65.20;;;;;;4936264;29;20177;-69
2024/03/09 14:43:08;;;;;;;0.43;0.43;;;16.50;65.20;;;;;;4936011;29;20991;-68
2024/03/09 14:45:36;;;;;;;0.30;0.30;;;16.60;64.50;;;;;;4936387;29;20438;-67
2024/03/09 14:48:04;;;;;;;0.30;0.30;;;16.60;64.50;;;;;;4936006;29;20411;-68
2024/03/09 14:50:32;;;;;;;0.30;0.20;;;16.60;65.10;;;;;;4936235;29;20999;-66
2024/03/09 14:52:58;;;;;;;0.30;0.30;;;16.60;65.70;;;;;;4936273;29;20392;-68
2024/03/09 14:55:27;;;;;;;0.30;0.30;;;16.60;66.00;;;;;;4935916;29;20425;-67
2024/03/09 14:57:58;;;;;;;0.97;0.50;;;16.60;65.90;;;;;;4935977;29;20384;-69
2024/03/09 15:03:28;;;;;;;0.30;0.30;;;16.60;65.90;;;;;;4877495;29;20415;-66
2024/03/09 15:05:58;;;;;;;0.30;0.20;;;16.60;65.70;;;;;;4924834;29;20447;-66
2024/03/09 15:08:24;;;;;;;0.50;0.50;;;16.60;66.00;;;;;;4936351;29;20436;-66
2024/03/09 15:10:59;;;;;;;0.30;0.30;;;16.60;65.80;;;;;;4936033;29;20384;-69
2024/03/09 15:13:38;;;;;;;0.40;0.40;;;16.60;65.70;;;;;;4936206;29;20725;-66
2024/03/09 15:16:05;;;;;;;0.33;0.30;;;16.50;65.60;;;;;;4935870;29;20798;-70
2024/03/09 15:18:31;;;;;;;0.30;0.20;;;16.50;65.80;;;;;;4936068;29;20471;-66
2024/03/09 15:20:58;;;;;;;0.30;0.20;;;16.40;65.40;;;;;;4935934;29;20471;-68
2024/03/09 15:23:24;;;;;;;0.30;0.30;;;16.40;66.00;;;;;;4935816;29;20192;-67
2024/03/09 15:25:50;;;;;;;0.33;0.33;;;16.30;66.70;;;;;;4935102;29;20477;-69
2024/03/09 15:28:19;;;;;;;0.30;0.30;;;16.30;66.30;;;;;;4935860;29;20189;-67
2024/03/09 15:30:49;;;;;;;0.30;0.30;;;16.30;66.80;;;;;;4934407;29;20457;-68
2024/03/09 15:33:26;;;;;;;0.30;0.30;;;16.20;67.10;;;;;;4936271;29;20386;-66
2024/03/09 15:35:52;;;;;;;0.30;0.30;;;16.20;67.60;;;;;;4934603;29;20527;-70
2024/03/09 15:38:19;;;;;;;0.30;0.20;;;16.10;68.00;;;;;;4935760;29;20389;-65
2024/03/09 15:40:45;;;;;;;0.30;0.30;;;16.00;68.20;;;;;;4934345;29;20419;-67
2024/03/09 15:43:12;;;;;;;0.30;0.30;;;16.00;68.90;;;;;;4935619;29;20856;-66
2024/03/09 15:45:38;;;;;;;0.30;0.20;;;15.90;69.20;;;;;;4935291;29;20544;-66
2024/03/09 15:48:13;;;;;;;0.47;0.47;;;15.90;69.70;;;;;;4935570;29;20411;-67
2024/03/09 15:50:40;;;;;;;0.50;0.50;;;15.80;69.90;;;;;;4935668;29;20265;-67
2024/03/09 15:53:09;;;;;;;0.33;0.33;;;15.80;70.10;;;;;;4935637;29;20386;-66
2024/03/09 15:55:35;;;;;;;0.40;0.40;;;15.70;70.70;;;;;;4935110;29;20418;-68
2024/03/09 15:58:04;;;;;;;0.30;0.20;;;15.60;71.00;;;;;;4935564;29;20397;-68
2024/03/09 16:00:30;;;;;;;0.30;0.20;;;15.60;71.50;;;;;;4937707;29;20421;-69
2024/03/09 16:03:00;;;;;;;0.40;0.40;;;15.50;71.60;;;;;;4938931;29;20808;-68
2024/03/09 16:05:27;;;;;;;0.30;0.30;;;15.50;72.40;;;;;;4938431;29;20452;-64
2024/03/09 16:07:53;;;;;;;1.43;1.33;;;15.50;72.80;;;;;;4937453;29;20428;-67
2024/03/09 16:10:22;;;;;;;0.40;0.40;;;15.50;73.30;;;;;;4938895;29;20390;-67
2024/03/09 16:12:52;;;;;;;0.30;0.30;;;15.40;74.00;;;;;;4938843;29;20400;-66
2024/03/09 16:15:24;;;;;;;0.30;0.20;;;15.40;74.50;;;;;;4938791;29;20457;-65
2024/03/09 16:17:53;;;;;;;0.40;0.40;;;15.30;75.20;;;;;;4939084;29;20430;-68
2024/03/09 16:20:31;;;;;;;0.30;0.30;;;15.30;75.90;;;;;;4938939;29;20422;-65
2024/03/09 16:23:04;;;;;;;0.30;0.30;;;15.20;76.20;;;;;;4939483;29;20420;-69
2024/03/09 16:25:39;;;;;;;0.30;0.30;;;15.10;77.10;;;;;;4938502;29;20431;-68
2024/03/09 16:28:12;;;;;;;0.37;0.37;;;15.00;77.60;;;;;;4938996;29;20760;-70
2024/03/09 16:30:41;;;;;;;1.13;0.77;;;15.00;78.20;;;;;;4938553;29;20390;-67
2024/03/09 16:33:11;;;;;;;0.30;0.30;;;14.90;78.60;;;;;;4938609;29;20489;-65
2024/03/09 16:35:49;;;;;;;0.30;0.30;;;14.80;78.90;;;;;;4938238;29;20412;-67
2024/03/09 16:38:21;;;;;;;0.30;0.30;;;14.80;79.90;;;;;;4938333;29;20385;-64
2024/03/09 16:40:47;;;;;;;0.30;0.30;;;14.70;80.40;;;;;;4938102;29;20439;-69
2024/03/09 16:43:14;;;;;;;0.40;0.40;;;14.60;81.30;;;;;;4938550;29;20388;-69
2024/03/09 16:45:40;;;;;;;0.30;0.30;;;14.60;82.10;;;;;;4937987;29;20439;-67
2024/03/09 16:48:07;;;;;;;0.33;0.33;;;14.50;82.60;;;;;;4938262;29;20372;-69
2024/03/09 16:50:33;;;;;;;0.30;0.30;;;14.40;83.10;;;;;;4938429;29;20416;-68
2024/03/09 16:52:59;;;;;;;0.30;0.30;;;14.30;82.70;;;;;;4936986;29;20476;-66
2024/03/09 16:55:25;;;;;;;0.30;0.20;;;14.30;82.70;;;;;;4937650;29;20393;-65
2024/03/09 16:57:51;;;;;;;0.40;0.40;;;14.20;82.90;;;;;;4937890;29;20416;-66
2024/03/09 17:00:20;;;;;;;0.30;0.30;;;14.20;83.10;;;;;;4937635;29;20467;-66
2024/03/09 17:02:53;;;;;;;0.30;0.30;;;14.10;83.80;;;;;;4938075;29;20244;-68
2024/03/09 17:05:30;;;;;;;0.30;0.30;;;14.00;84.00;;;;;;4937076;29;20457;-66
2024/03/09 17:07:58;;;;;;;0.30;0.30;;;13.90;84.80;;;;;;4937519;29;20411;-67
2024/03/09 17:10:25;;;;;;;0.30;0.30;;;13.90;85.00;;;;;;4936426;29;20405;-68
2024/03/09 17:12:50;;;;;;;1.90;0.60;;;13.80;85.00;;;;;;4937537;29;20406;-66
2024/03/09 17:15:18;;;;;;;0.30;0.30;;;13.70;85.40;;;;;;4937528;29;20461;-66
2024/03/09 17:17:47;;;;;;;0.30;0.30;;;13.80;85.90;;;;;;4937692;29;20256;-68
2024/03/09 17:20:26;;;;;;;0.30;0.30;;;13.70;85.70;;;;;;4936309;29;20712;-66
2024/03/09 17:22:54;;;;;;;1.37;1.27;;;13.60;85.90;;;;;;4937534;29;20839;-65
2024/03/09 17:25:21;;;;;;;0.40;0.40;;;13.60;85.90;;;;;;4937397;29;20417;-65
2024/03/09 17:27:47;;;;;;;0.40;0.40;;;13.50;85.70;;;;;;4938080;29;20773;-65
2024/03/09 17:30:14;;;;;;;0.30;0.30;;;13.50;85.80;;;;;;4936916;29;20429;-67
2024/03/09 17:32:43;;;;;;;0.30;0.30;;;13.50;86.00;;;;;;4938500;29;20934;-65
2024/03/09 17:35:11;;;;;;;0.50;0.47;;;13.50;86.00;;;;;;4937916;29;20432;-66
2024/03/09 17:37:37;;;;;;;0.30;0.30;;;13.50;86.20;;;;;;4937908;29;20447;-66
2024/03/09 17:40:12;;;;;;;0.30;0.30;;;13.40;86.20;;;;;;4937877;29;20411;-65
2024/03/09 17:42:41;;;;;;;0.40;0.40;;;13.40;86.50;;;;;;4937605;29;20408;-68
2024/03/09 17:45:08;;;;;;;0.30;0.30;;;13.40;86.50;;;;;;4937119;29;20409;-65
2024/03/09 17:47:34;;;;;;;0.60;0.60;;;13.30;86.60;;;;;;4937481;29;20816;-68
2024/03/09 17:49:59;;;;;;;0.50;0.50;;;13.30;86.60;;;;;;4939653;29;20392;-65
2024/03/09 17:52:28;;;;;;;0.60;0.60;;;13.30;86.50;;;;;;4942560;29;20180;-70
2024/03/09 17:54:53;;;;;;;0.30;0.30;;;13.30;86.60;;;;;;4944627;29;20221;-66
2024/03/09 17:57:23;;;;;;;0.33;0.33;;;13.30;86.80;;;;;;4943345;29;20921;-68
2024/03/09 17:59:51;;;;;;;0.33;0.33;;;13.40;87.10;;;;;;4943808;29;20173;-67
2024/03/09 18:02:17;;;;;;;0.50;0.50;;;13.40;87.20;;;;;;4942261;29;20396;-66